sensor_id;sensor_type;location;lat;lon;timestamp;P1;durP1;ratioP1;P2;durP2;ratioP2
68247;SDS011;55064;49.636;12.164;2023-01-15T00:01:00;5.57;;;1.65;;
68247;SDS011;55064;49.636;12.164;2023-01-15T00:03:26;5.20;;;1.30;;
68247;SDS011;55064;49.636;12.164;2023-01-15T00:05:52;6.35;;;1.77;;
68247;SDS011;55064;49.636;12.164;2023-01-15T00:08:18;6.10;;;1.35;;
68247;SDS011;55064;49.636;12.164;2023-01-15T00:10:43;4.53;;;1.40;;
68247;SDS011;55064;49.636;12.164;2023-01-15T00:13:09;4.80;;;1.40;;
68247;SDS011;55064;49.636;12.164;2023-01-15T00:15:34;5.73;;;1.60;;
68247;SDS011;55064;49.636;12.164;2023-01-15T00:18:00;4.22;;;1.20;;
68247;SDS011;55064;49.636;12.164;2023-01-15T00:20:25;4.30;;;1.10;;
68247;SDS011;55064;49.636;12.164;2023-01-15T00:22:51;7.03;;;1.20;;
68247;SDS011;55064;49.636;12.164;2023-01-15T00:25:17;5.70;;;1.33;;
68247;SDS011;55064;49.636;12.164;2023-01-15T00:28:04;4.55;;;1.30;;
68247;SDS011;55064;49.636;12.164;2023-01-15T00:30:29;4.63;;;1.30;;
68247;SDS011;55064;49.636;12.164;2023-01-15T00:32:55;3.53;;;0.80;;
68247;SDS011;55064;49.636;12.164;2023-01-15T00:35:22;3.40;;;0.80;;
68247;SDS011;55064;49.636;12.164;2023-01-15T00:37:49;4.05;;;1.10;;
68247;SDS011;55064;49.636;12.164;2023-01-15T00:40:18;4.30;;;1.20;;
68247;SDS011;55064;49.636;12.164;2023-01-15T00:42:44;4.97;;;1.50;;
68247;SDS011;55064;49.636;12.164;2023-01-15T00:45:11;4.13;;;1.10;;
68247;SDS011;55064;49.636;12.164;2023-01-15T00:47:40;7.30;;;1.13;;
68247;SDS011;55064;49.636;12.164;2023-01-15T00:50:09;3.80;;;0.93;;
68247;SDS011;55064;49.636;12.164;2023-01-15T00:52:38;3.90;;;1.15;;
68247;SDS011;55064;49.636;12.164;2023-01-15T00:55:03;4.78;;;1.23;;
68247;SDS011;55064;49.636;12.164;2023-01-15T00:57:29;4.90;;;1.35;;
68247;SDS011;55064;49.636;12.164;2023-01-15T00:59:57;4.13;;;1.00;;
68247;SDS011;55064;49.636;12.164;2023-01-15T01:02:22;3.90;;;0.90;;
68247;SDS011;55064;49.636;12.164;2023-01-15T01:04:49;4.77;;;1.13;;
68247;SDS011;55064;49.636;12.164;2023-01-15T01:07:14;4.15;;;1.02;;
68247;SDS011;55064;49.636;12.164;2023-01-15T01:09:40;4.77;;;0.80;;
68247;SDS011;55064;49.636;12.164;2023-01-15T01:12:06;2.97;;;0.88;;
68247;SDS011;55064;49.636;12.164;2023-01-15T01:14:35;3.43;;;0.90;;
68247;SDS011;55064;49.636;12.164;2023-01-15T01:17:01;3.55;;;0.90;;
68247;SDS011;55064;49.636;12.164;2023-01-15T01:19:27;4.07;;;0.80;;
68247;SDS011;55064;49.636;12.164;2023-01-15T01:21:52;3.27;;;0.87;;
68247;SDS011;55064;49.636;12.164;2023-01-15T01:24:19;3.50;;;0.70;;
68247;SDS011;55064;49.636;12.164;2023-01-15T01:26:46;4.03;;;0.98;;
68247;SDS011;55064;49.636;12.164;2023-01-15T01:29:17;3.95;;;1.02;;
68247;SDS011;55064;49.636;12.164;2023-01-15T01:31:46;4.68;;;1.10;;
68247;SDS011;55064;49.636;12.164;2023-01-15T01:34:13;3.57;;;1.00;;
68247;SDS011;55064;49.636;12.164;2023-01-15T01:36:40;3.85;;;1.10;;
68247;SDS011;55064;49.636;12.164;2023-01-15T01:39:08;4.32;;;1.10;;
68247;SDS011;55064;49.636;12.164;2023-01-15T01:41:37;3.33;;;1.00;;
68247;SDS011;55064;49.636;12.164;2023-01-15T01:44:53;3.47;;;1.07;;
68247;SDS011;55064;49.636;12.164;2023-01-15T01:47:00;3.17;;;0.80;;
68247;SDS011;55064;49.636;12.164;2023-01-15T01:49:29;4.05;;;0.90;;
68247;SDS011;55064;49.636;12.164;2023-01-15T01:52:02;4.23;;;1.00;;
68247;SDS011;55064;49.636;12.164;2023-01-15T01:54:32;3.30;;;1.00;;
68247;SDS011;55064;49.636;12.164;2023-01-15T01:56:59;3.67;;;0.80;;
68247;SDS011;55064;49.636;12.164;2023-01-15T01:59:26;3.90;;;0.97;;
68247;SDS011;55064;49.636;12.164;2023-01-15T02:01:52;4.53;;;0.80;;
68247;SDS011;55064;49.636;12.164;2023-01-15T02:04:21;4.15;;;0.95;;
68247;SDS011;55064;49.636;12.164;2023-01-15T02:06:48;4.55;;;1.10;;
68247;SDS011;55064;49.636;12.164;2023-01-15T02:09:15;4.63;;;1.00;;
68247;SDS011;55064;49.636;12.164;2023-01-15T02:11:41;5.03;;;0.93;;
68247;SDS011;55064;49.636;12.164;2023-01-15T02:14:20;4.00;;;1.10;;
68247;SDS011;55064;49.636;12.164;2023-01-15T02:17:06;3.60;;;1.00;;
68247;SDS011;55064;49.636;12.164;2023-01-15T02:19:48;4.22;;;1.20;;
68247;SDS011;55064;49.636;12.164;2023-01-15T02:25:18;2.65;;;0.70;;
68247;SDS011;55064;49.636;12.164;2023-01-15T02:30:39;3.20;;;0.70;;
68247;SDS011;55064;49.636;12.164;2023-01-15T02:33:09;2.47;;;0.52;;
68247;SDS011;55064;49.636;12.164;2023-01-15T02:35:42;3.20;;;0.77;;
68247;SDS011;55064;49.636;12.164;2023-01-15T02:38:12;2.75;;;0.70;;
68247;SDS011;55064;49.636;12.164;2023-01-15T02:40:43;4.03;;;0.63;;
68247;SDS011;55064;49.636;12.164;2023-01-15T02:43:14;3.03;;;0.50;;
68247;SDS011;55064;49.636;12.164;2023-01-15T02:45:42;3.10;;;0.70;;
68247;SDS011;55064;49.636;12.164;2023-01-15T02:48:12;2.55;;;0.52;;
68247;SDS011;55064;49.636;12.164;2023-01-15T02:50:39;3.35;;;0.70;;
68247;SDS011;55064;49.636;12.164;2023-01-15T02:53:11;3.37;;;0.80;;
68247;SDS011;55064;49.636;12.164;2023-01-15T02:55:44;3.20;;;0.60;;
68247;SDS011;55064;49.636;12.164;2023-01-15T02:58:13;2.67;;;0.60;;
68247;SDS011;55064;49.636;12.164;2023-01-15T03:00:44;2.45;;;0.50;;
68247;SDS011;55064;49.636;12.164;2023-01-15T03:03:15;4.28;;;0.80;;
68247;SDS011;55064;49.636;12.164;2023-01-15T03:05:51;3.13;;;0.70;;
68247;SDS011;55064;49.636;12.164;2023-01-15T03:08:23;2.78;;;0.60;;
68247;SDS011;55064;49.636;12.164;2023-01-15T03:13:28;4.47;;;0.70;;
68247;SDS011;55064;49.636;12.164;2023-01-15T03:19:45;3.40;;;0.77;;
68247;SDS011;55064;49.636;12.164;2023-01-15T03:21:46;3.55;;;0.80;;
68247;SDS011;55064;49.636;12.164;2023-01-15T03:24:38;2.15;;;0.60;;
68247;SDS011;55064;49.636;12.164;2023-01-15T03:27:08;4.35;;;0.85;;
68247;SDS011;55064;49.636;12.164;2023-01-15T03:29:36;3.58;;;0.70;;
68247;SDS011;55064;49.636;12.164;2023-01-15T03:32:05;2.60;;;0.63;;
68247;SDS011;55064;49.636;12.164;2023-01-15T03:34:41;2.95;;;0.80;;
68247;SDS011;55064;49.636;12.164;2023-01-15T03:37:09;2.72;;;0.60;;
68247;SDS011;55064;49.636;12.164;2023-01-15T03:39:35;2.97;;;0.70;;
68247;SDS011;55064;49.636;12.164;2023-01-15T03:42:18;3.77;;;0.60;;
68247;SDS011;55064;49.636;12.164;2023-01-15T03:47:28;3.80;;;0.73;;
68247;SDS011;55064;49.636;12.164;2023-01-15T03:52:47;3.43;;;0.70;;
68247;SDS011;55064;49.636;12.164;2023-01-15T03:55:27;3.10;;;0.60;;
68247;SDS011;55064;49.636;12.164;2023-01-15T03:58:00;3.63;;;0.80;;
68247;SDS011;55064;49.636;12.164;2023-01-15T04:00:34;3.83;;;0.80;;
68247;SDS011;55064;49.636;12.164;2023-01-15T04:03:03;3.30;;;0.90;;
68247;SDS011;55064;49.636;12.164;2023-01-15T04:05:33;4.07;;;0.80;;
68247;SDS011;55064;49.636;12.164;2023-01-15T04:08:05;2.70;;;0.80;;
68247;SDS011;55064;49.636;12.164;2023-01-15T04:10:31;3.85;;;0.90;;
68247;SDS011;55064;49.636;12.164;2023-01-15T04:12:57;3.40;;;0.90;;
68247;SDS011;55064;49.636;12.164;2023-01-15T04:15:22;2.80;;;0.70;;
68247;SDS011;55064;49.636;12.164;2023-01-15T04:17:50;3.17;;;0.70;;
68247;SDS011;55064;49.636;12.164;2023-01-15T04:20:15;2.97;;;0.68;;
68247;SDS011;55064;49.636;12.164;2023-01-15T04:22:41;3.60;;;0.60;;
68247;SDS011;55064;49.636;12.164;2023-01-15T04:25:06;3.37;;;0.63;;
68247;SDS011;55064;49.636;12.164;2023-01-15T04:27:32;4.68;;;0.60;;
68247;SDS011;55064;49.636;12.164;2023-01-15T04:29:57;3.57;;;0.70;;
68247;SDS011;55064;49.636;12.164;2023-01-15T04:32:23;3.30;;;0.60;;
68247;SDS011;55064;49.636;12.164;2023-01-15T04:34:48;3.35;;;0.65;;
68247;SDS011;55064;49.636;12.164;2023-01-15T04:37:15;3.10;;;0.73;;
68247;SDS011;55064;49.636;12.164;2023-01-15T04:39:43;3.47;;;0.63;;
68247;SDS011;55064;49.636;12.164;2023-01-15T04:42:11;3.47;;;0.77;;
68247;SDS011;55064;49.636;12.164;2023-01-15T04:44:56;2.83;;;0.60;;
68247;SDS011;55064;49.636;12.164;2023-01-15T04:47:22;3.28;;;0.60;;
68247;SDS011;55064;49.636;12.164;2023-01-15T04:49:48;2.07;;;0.53;;
68247;SDS011;55064;49.636;12.164;2023-01-15T04:52:13;2.67;;;0.70;;
68247;SDS011;55064;49.636;12.164;2023-01-15T04:54:40;3.10;;;0.63;;
68247;SDS011;55064;49.636;12.164;2023-01-15T04:57:05;2.80;;;0.60;;
68247;SDS011;55064;49.636;12.164;2023-01-15T04:59:30;2.73;;;0.50;;
68247;SDS011;55064;49.636;12.164;2023-01-15T05:01:56;3.03;;;0.70;;
68247;SDS011;55064;49.636;12.164;2023-01-15T05:04:21;2.60;;;0.60;;
68247;SDS011;55064;49.636;12.164;2023-01-15T05:06:47;2.83;;;0.50;;
68247;SDS011;55064;49.636;12.164;2023-01-15T05:09:12;4.93;;;0.60;;
68247;SDS011;55064;49.636;12.164;2023-01-15T05:11:38;2.78;;;0.77;;
68247;SDS011;55064;49.636;12.164;2023-01-15T05:14:04;2.47;;;0.65;;
68247;SDS011;55064;49.636;12.164;2023-01-15T05:16:30;4.33;;;0.60;;
68247;SDS011;55064;49.636;12.164;2023-01-15T05:18:57;2.55;;;0.60;;
68247;SDS011;55064;49.636;12.164;2023-01-15T05:21:31;2.08;;;0.50;;
68247;SDS011;55064;49.636;12.164;2023-01-15T05:23:58;2.78;;;0.70;;
68247;SDS011;55064;49.636;12.164;2023-01-15T05:26:26;4.63;;;0.50;;
68247;SDS011;55064;49.636;12.164;2023-01-15T05:28:54;5.10;;;0.65;;
68247;SDS011;55064;49.636;12.164;2023-01-15T05:31:24;2.25;;;0.50;;
68247;SDS011;55064;49.636;12.164;2023-01-15T05:33:50;2.70;;;0.60;;
68247;SDS011;55064;49.636;12.164;2023-01-15T05:36:23;2.05;;;0.40;;
68247;SDS011;55064;49.636;12.164;2023-01-15T05:38:54;3.20;;;0.50;;
68247;SDS011;55064;49.636;12.164;2023-01-15T05:41:22;2.70;;;0.70;;
68247;SDS011;55064;49.636;12.164;2023-01-15T05:44:07;4.13;;;0.75;;
68247;SDS011;55064;49.636;12.164;2023-01-15T05:46:34;1.90;;;0.55;;
68247;SDS011;55064;49.636;12.164;2023-01-15T05:49:03;3.88;;;0.75;;
68247;SDS011;55064;49.636;12.164;2023-01-15T05:51:32;4.43;;;0.90;;
68247;SDS011;55064;49.636;12.164;2023-01-15T05:53:59;3.25;;;0.60;;
68247;SDS011;55064;49.636;12.164;2023-01-15T05:56:24;3.05;;;0.65;;
68247;SDS011;55064;49.636;12.164;2023-01-15T05:58:50;3.70;;;1.20;;
68247;SDS011;55064;49.636;12.164;2023-01-15T06:01:15;3.22;;;0.80;;
68247;SDS011;55064;49.636;12.164;2023-01-15T06:03:41;2.63;;;0.70;;
68247;SDS011;55064;49.636;12.164;2023-01-15T06:06:10;3.17;;;0.80;;
68247;SDS011;55064;49.636;12.164;2023-01-15T06:08:37;3.70;;;0.88;;
68247;SDS011;55064;49.636;12.164;2023-01-15T06:11:02;2.60;;;0.80;;
68247;SDS011;55064;49.636;12.164;2023-01-15T06:13:30;2.80;;;0.80;;
68247;SDS011;55064;49.636;12.164;2023-01-15T06:15:58;4.10;;;1.20;;
68247;SDS011;55064;49.636;12.164;2023-01-15T06:18:25;3.03;;;0.80;;
68247;SDS011;55064;49.636;12.164;2023-01-15T06:20:50;3.10;;;0.63;;
68247;SDS011;55064;49.636;12.164;2023-01-15T06:23:16;2.97;;;0.70;;
68247;SDS011;55064;49.636;12.164;2023-01-15T06:25:42;3.58;;;0.68;;
68247;SDS011;55064;49.636;12.164;2023-01-15T06:28:10;2.85;;;0.63;;
68247;SDS011;55064;49.636;12.164;2023-01-15T06:30:37;3.53;;;0.80;;
68247;SDS011;55064;49.636;12.164;2023-01-15T06:33:04;3.08;;;0.65;;
68247;SDS011;55064;49.636;12.164;2023-01-15T06:35:32;3.13;;;0.90;;
68247;SDS011;55064;49.636;12.164;2023-01-15T06:37:59;2.70;;;0.60;;
68247;SDS011;55064;49.636;12.164;2023-01-15T06:40:24;4.10;;;0.70;;
68247;SDS011;55064;49.636;12.164;2023-01-15T06:42:56;3.65;;;0.80;;
68247;SDS011;55064;49.636;12.164;2023-01-15T06:45:42;2.72;;;0.80;;
68247;SDS011;55064;49.636;12.164;2023-01-15T06:48:27;4.13;;;1.23;;
68247;SDS011;55064;49.636;12.164;2023-01-15T06:50:53;3.90;;;0.88;;
68247;SDS011;55064;49.636;12.164;2023-01-15T06:53:19;3.07;;;0.87;;
68247;SDS011;55064;49.636;12.164;2023-01-15T06:55:45;4.30;;;0.77;;
68247;SDS011;55064;49.636;12.164;2023-01-15T06:58:11;2.92;;;0.60;;
68247;SDS011;55064;49.636;12.164;2023-01-15T07:00:37;4.32;;;1.10;;
68247;SDS011;55064;49.636;12.164;2023-01-15T07:03:03;2.80;;;0.70;;
68247;SDS011;55064;49.636;12.164;2023-01-15T07:05:29;2.05;;;0.40;;
68247;SDS011;55064;49.636;12.164;2023-01-15T07:07:55;3.90;;;0.97;;
68247;SDS011;55064;49.636;12.164;2023-01-15T07:10:25;3.83;;;0.85;;
68247;SDS011;55064;49.636;12.164;2023-01-15T07:12:51;3.20;;;0.70;;
68247;SDS011;55064;49.636;12.164;2023-01-15T07:15:17;3.00;;;0.80;;
68247;SDS011;55064;49.636;12.164;2023-01-15T07:17:43;2.90;;;0.60;;
68247;SDS011;55064;49.636;12.164;2023-01-15T07:20:08;3.50;;;0.73;;
68247;SDS011;55064;49.636;12.164;2023-01-15T07:22:36;3.35;;;0.88;;
68247;SDS011;55064;49.636;12.164;2023-01-15T07:25:01;3.85;;;0.75;;
68247;SDS011;55064;49.636;12.164;2023-01-15T07:27:27;2.80;;;0.83;;
68247;SDS011;55064;49.636;12.164;2023-01-15T07:29:52;5.40;;;1.00;;
68247;SDS011;55064;49.636;12.164;2023-01-15T07:32:19;4.03;;;1.10;;
68247;SDS011;55064;49.636;12.164;2023-01-15T07:34:44;3.72;;;1.02;;
68247;SDS011;55064;49.636;12.164;2023-01-15T07:37:11;3.97;;;1.03;;
68247;SDS011;55064;49.636;12.164;2023-01-15T07:39:36;3.92;;;1.15;;
68247;SDS011;55064;49.636;12.164;2023-01-15T07:42:01;3.70;;;1.00;;
68247;SDS011;55064;49.636;12.164;2023-01-15T07:44:45;4.63;;;1.20;;
68247;SDS011;55064;49.636;12.164;2023-01-15T07:47:29;3.83;;;1.30;;
68247;SDS011;55064;49.636;12.164;2023-01-15T07:50:20;3.63;;;1.10;;
68247;SDS011;55064;49.636;12.164;2023-01-15T07:52:47;4.88;;;1.33;;
68247;SDS011;55064;49.636;12.164;2023-01-15T07:55:12;4.00;;;1.00;;
68247;SDS011;55064;49.636;12.164;2023-01-15T07:57:40;3.63;;;0.93;;
68247;SDS011;55064;49.636;12.164;2023-01-15T08:00:10;4.27;;;1.10;;
68247;SDS011;55064;49.636;12.164;2023-01-15T08:02:38;4.90;;;1.40;;
68247;SDS011;55064;49.636;12.164;2023-01-15T08:05:04;4.07;;;1.02;;
68247;SDS011;55064;49.636;12.164;2023-01-15T08:07:34;3.90;;;1.00;;
68247;SDS011;55064;49.636;12.164;2023-01-15T08:10:04;5.57;;;1.52;;
68247;SDS011;55064;49.636;12.164;2023-01-15T08:12:30;3.63;;;1.00;;
68247;SDS011;55064;49.636;12.164;2023-01-15T08:15:15;3.55;;;1.02;;
68247;SDS011;55064;49.636;12.164;2023-01-15T08:17:47;3.40;;;0.80;;
68247;SDS011;55064;49.636;12.164;2023-01-15T08:20:17;4.88;;;1.10;;
68247;SDS011;55064;49.636;12.164;2023-01-15T08:22:47;3.47;;;0.80;;
68247;SDS011;55064;49.636;12.164;2023-01-15T08:25:13;4.07;;;0.70;;
68247;SDS011;55064;49.636;12.164;2023-01-15T08:27:40;5.05;;;1.00;;
68247;SDS011;55064;49.636;12.164;2023-01-15T08:30:07;4.47;;;1.00;;
68247;SDS011;55064;49.636;12.164;2023-01-15T08:32:36;4.32;;;1.00;;
68247;SDS011;55064;49.636;12.164;2023-01-15T08:35:02;4.40;;;1.08;;
68247;SDS011;55064;49.636;12.164;2023-01-15T08:37:27;4.27;;;0.93;;
68247;SDS011;55064;49.636;12.164;2023-01-15T08:39:53;4.22;;;0.77;;
68247;SDS011;55064;49.636;12.164;2023-01-15T08:42:19;3.47;;;1.03;;
68247;SDS011;55064;49.636;12.164;2023-01-15T08:44:47;4.47;;;1.30;;
68247;SDS011;55064;49.636;12.164;2023-01-15T08:47:13;3.17;;;0.80;;
68247;SDS011;55064;49.636;12.164;2023-01-15T08:49:39;5.10;;;0.93;;
68247;SDS011;55064;49.636;12.164;2023-01-15T08:52:05;3.40;;;1.00;;
68247;SDS011;55064;49.636;12.164;2023-01-15T08:54:33;7.13;;;2.20;;
68247;SDS011;55064;49.636;12.164;2023-01-15T08:56:58;9.40;;;1.65;;
68247;SDS011;55064;49.636;12.164;2023-01-15T09:05:48;5.88;;;1.80;;
68247;SDS011;55064;49.636;12.164;2023-01-15T09:14:57;4.65;;;1.35;;
68247;SDS011;55064;49.636;12.164;2023-01-15T09:17:22;4.40;;;1.33;;
68247;SDS011;55064;49.636;12.164;2023-01-15T09:19:48;3.47;;;0.87;;
68247;SDS011;55064;49.636;12.164;2023-01-15T09:22:13;3.10;;;0.77;;
68247;SDS011;55064;49.636;12.164;2023-01-15T09:24:39;3.40;;;0.60;;
68247;SDS011;55064;49.636;12.164;2023-01-15T09:27:07;3.45;;;0.90;;
68247;SDS011;55064;49.636;12.164;2023-01-15T09:29:37;3.75;;;0.80;;
68247;SDS011;55064;49.636;12.164;2023-01-15T09:32:05;1.85;;;0.40;;
68247;SDS011;55064;49.636;12.164;2023-01-15T09:34:32;2.43;;;0.70;;
68247;SDS011;55064;49.636;12.164;2023-01-15T09:36:59;2.03;;;0.40;;
68247;SDS011;55064;49.636;12.164;2023-01-15T09:39:24;1.97;;;0.40;;
68247;SDS011;55064;49.636;12.164;2023-01-15T09:41:58;1.67;;;0.30;;
68247;SDS011;55064;49.636;12.164;2023-01-15T09:55:27;2.70;;;0.53;;
68247;SDS011;55064;49.636;12.164;2023-01-15T09:57:57;1.48;;;0.30;;
68247;SDS011;55064;49.636;12.164;2023-01-15T10:00:25;0.75;;;0.30;;
68247;SDS011;55064;49.636;12.164;2023-01-15T10:05:43;2.35;;;0.57;;
68247;SDS011;55064;49.636;12.164;2023-01-15T10:08:25;1.50;;;0.30;;
68247;SDS011;55064;49.636;12.164;2023-01-15T10:11:03;1.75;;;0.40;;
68247;SDS011;55064;49.636;12.164;2023-01-15T10:13:42;3.33;;;0.80;;
68247;SDS011;55064;49.636;12.164;2023-01-15T10:16:20;4.57;;;1.10;;
68247;SDS011;55064;49.636;12.164;2023-01-15T10:18:47;2.05;;;0.47;;
68247;SDS011;55064;49.636;12.164;2023-01-15T10:26:56;2.03;;;0.45;;
68247;SDS011;55064;49.636;12.164;2023-01-15T10:45:59;6.88;;;2.75;;
68247;SDS011;55064;49.636;12.164;2023-01-15T10:51:19;5.50;;;1.48;;
68247;SDS011;55064;49.636;12.164;2023-01-15T10:53:51;5.50;;;1.38;;
68247;SDS011;55064;49.636;12.164;2023-01-15T11:01:38;15.93;;;4.63;;
68247;SDS011;55064;49.636;12.164;2023-01-15T11:04:10;7.43;;;2.20;;
68247;SDS011;55064;49.636;12.164;2023-01-15T11:06:39;3.03;;;0.70;;
68247;SDS011;55064;49.636;12.164;2023-01-15T11:15:25;4.10;;;1.10;;
68247;SDS011;55064;49.636;12.164;2023-01-15T11:18:33;5.15;;;1.65;;
68247;SDS011;55064;49.636;12.164;2023-01-15T11:24:35;2.78;;;0.70;;
68247;SDS011;55064;49.636;12.164;2023-01-15T11:29:58;3.47;;;1.03;;
68247;SDS011;55064;49.636;12.164;2023-01-15T11:32:30;2.63;;;0.73;;
68247;SDS011;55064;49.636;12.164;2023-01-15T11:37:41;4.82;;;1.40;;
68247;SDS011;55064;49.636;12.164;2023-01-15T11:49:23;3.72;;;0.90;;
68247;SDS011;55064;49.636;12.164;2023-01-15T11:52:28;2.90;;;0.57;;
68247;SDS011;55064;49.636;12.164;2023-01-15T11:58:15;0.80;;;0.10;;
68247;SDS011;55064;49.636;12.164;2023-01-15T12:00:42;1.05;;;0.20;;
68247;SDS011;55064;49.636;12.164;2023-01-15T12:03:16;1.73;;;0.33;;
68247;SDS011;55064;49.636;12.164;2023-01-15T12:06:06;2.50;;;0.55;;
68247;SDS011;55064;49.636;12.164;2023-01-15T12:14:17;3.88;;;0.50;;
68247;SDS011;55064;49.636;12.164;2023-01-15T12:17:12;2.27;;;0.50;;
68247;SDS011;55064;49.636;12.164;2023-01-15T12:22:46;1.50;;;0.40;;
68247;SDS011;55064;49.636;12.164;2023-01-15T12:28:20;1.38;;;0.30;;
68247;SDS011;55064;49.636;12.164;2023-01-15T12:31:12;1.40;;;0.27;;
68247;SDS011;55064;49.636;12.164;2023-01-15T12:41:36;2.50;;;0.47;;
68247;SDS011;55064;49.636;12.164;2023-01-15T12:47:23;1.10;;;0.30;;
68247;SDS011;55064;49.636;12.164;2023-01-15T12:50:01;2.67;;;0.73;;
68247;SDS011;55064;49.636;12.164;2023-01-15T12:52:40;2.17;;;0.60;;
68247;SDS011;55064;49.636;12.164;2023-01-15T12:57:59;0.83;;;0.20;;
68247;SDS011;55064;49.636;12.164;2023-01-15T13:00:42;1.13;;;0.20;;
68247;SDS011;55064;49.636;12.164;2023-01-15T13:05:37;1.67;;;0.50;;
68247;SDS011;55064;49.636;12.164;2023-01-15T13:10:50;1.88;;;0.50;;
68247;SDS011;55064;49.636;12.164;2023-01-15T13:13:21;3.55;;;0.70;;
68247;SDS011;55064;49.636;12.164;2023-01-15T13:21:42;1.75;;;0.40;;
68247;SDS011;55064;49.636;12.164;2023-01-15T13:27:25;2.05;;;0.57;;
68247;SDS011;55064;49.636;12.164;2023-01-15T13:36:00;2.63;;;0.60;;
68247;SDS011;55064;49.636;12.164;2023-01-15T13:38:32;3.22;;;0.90;;
68247;SDS011;55064;49.636;12.164;2023-01-15T13:44:30;2.13;;;0.40;;
68247;SDS011;55064;49.636;12.164;2023-01-15T13:47:03;1.98;;;0.30;;
68247;SDS011;55064;49.636;12.164;2023-01-15T13:49:35;2.08;;;0.40;;
68247;SDS011;55064;49.636;12.164;2023-01-15T13:52:04;2.08;;;0.43;;
68247;SDS011;55064;49.636;12.164;2023-01-15T13:54:34;3.60;;;0.60;;
68247;SDS011;55064;49.636;12.164;2023-01-15T13:59:49;0.80;;;0.20;;
68247;SDS011;55064;49.636;12.164;2023-01-15T14:02:31;0.70;;;0.10;;
68247;SDS011;55064;49.636;12.164;2023-01-15T14:05:22;2.77;;;0.40;;
68247;SDS011;55064;49.636;12.164;2023-01-15T14:07:48;0.63;;;0.10;;
68247;SDS011;55064;49.636;12.164;2023-01-15T14:15:55;2.23;;;0.40;;
68247;SDS011;55064;49.636;12.164;2023-01-15T14:21:19;2.22;;;0.32;;
68247;SDS011;55064;49.636;12.164;2023-01-15T14:26:34;1.35;;;0.40;;
68247;SDS011;55064;49.636;12.164;2023-01-15T14:34:41;2.38;;;0.50;;
68247;SDS011;55064;49.636;12.164;2023-01-15T14:39:51;2.78;;;0.60;;
68247;SDS011;55064;49.636;12.164;2023-01-15T14:52:49;2.10;;;0.40;;
68247;SDS011;55064;49.636;12.164;2023-01-15T14:55:20;2.37;;;0.60;;
68247;SDS011;55064;49.636;12.164;2023-01-15T14:58:05;1.77;;;0.30;;
68247;SDS011;55064;49.636;12.164;2023-01-15T15:00:41;1.60;;;0.30;;
68247;SDS011;55064;49.636;12.164;2023-01-15T15:03:16;2.13;;;0.40;;
68247;SDS011;55064;49.636;12.164;2023-01-15T15:05:57;1.98;;;0.50;;
68247;SDS011;55064;49.636;12.164;2023-01-15T15:08:37;2.73;;;0.70;;
68247;SDS011;55064;49.636;12.164;2023-01-15T15:11:11;3.10;;;0.70;;
68247;SDS011;55064;49.636;12.164;2023-01-15T15:14:02;3.78;;;0.98;;
68247;SDS011;55064;49.636;12.164;2023-01-15T15:16:30;3.67;;;0.95;;
68247;SDS011;55064;49.636;12.164;2023-01-15T15:19:17;5.50;;;1.30;;
68247;SDS011;55064;49.636;12.164;2023-01-15T15:21:52;4.00;;;1.07;;
68247;SDS011;55064;49.636;12.164;2023-01-15T15:24:25;3.10;;;0.75;;
68247;SDS011;55064;49.636;12.164;2023-01-15T15:26:54;1.58;;;0.40;;
68247;SDS011;55064;49.636;12.164;2023-01-15T15:29:20;1.77;;;0.50;;
68247;SDS011;55064;49.636;12.164;2023-01-15T15:31:55;1.88;;;0.30;;
68247;SDS011;55064;49.636;12.164;2023-01-15T15:34:37;1.37;;;0.30;;
68247;SDS011;55064;49.636;12.164;2023-01-15T15:37:17;1.40;;;0.30;;
68247;SDS011;55064;49.636;12.164;2023-01-15T15:45:25;3.50;;;0.70;;
68247;SDS011;55064;49.636;12.164;2023-01-15T15:48:21;2.03;;;0.40;;
68247;SDS011;55064;49.636;12.164;2023-01-15T15:57:31;5.38;;;1.15;;
68247;SDS011;55064;49.636;12.164;2023-01-15T16:05:23;5.15;;;1.05;;
68247;SDS011;55064;49.636;12.164;2023-01-15T16:08:19;4.40;;;0.90;;
68247;SDS011;55064;49.636;12.164;2023-01-15T16:10:48;4.63;;;0.90;;
68247;SDS011;55064;49.636;12.164;2023-01-15T16:15:58;3.17;;;0.80;;
68247;SDS011;55064;49.636;12.164;2023-01-15T16:18:31;4.18;;;1.00;;
68247;SDS011;55064;49.636;12.164;2023-01-15T16:21:09;5.00;;;1.77;;
68247;SDS011;55064;49.636;12.164;2023-01-15T16:23:53;4.85;;;1.00;;
68247;SDS011;55064;49.636;12.164;2023-01-15T16:26:20;4.20;;;1.08;;
68247;SDS011;55064;49.636;12.164;2023-01-15T16:28:51;4.17;;;1.10;;
68247;SDS011;55064;49.636;12.164;2023-01-15T16:31:20;4.10;;;1.10;;
68247;SDS011;55064;49.636;12.164;2023-01-15T16:33:47;6.85;;;1.77;;
68247;SDS011;55064;49.636;12.164;2023-01-15T16:36:21;8.02;;;2.75;;
68247;SDS011;55064;49.636;12.164;2023-01-15T16:38:56;5.78;;;1.90;;
68247;SDS011;55064;49.636;12.164;2023-01-15T16:41:25;5.17;;;1.20;;
68247;SDS011;55064;49.636;12.164;2023-01-15T16:43:59;5.15;;;1.40;;
68247;SDS011;55064;49.636;12.164;2023-01-15T16:46:30;4.65;;;0.90;;
68247;SDS011;55064;49.636;12.164;2023-01-15T16:51:49;3.28;;;0.77;;
68247;SDS011;55064;49.636;12.164;2023-01-15T16:56:55;6.00;;;1.02;;
68247;SDS011;55064;49.636;12.164;2023-01-15T17:04:49;7.53;;;2.00;;
68247;SDS011;55064;49.636;12.164;2023-01-15T17:09:57;7.38;;;2.20;;
68247;SDS011;55064;49.636;12.164;2023-01-15T17:12:35;7.78;;;2.30;;
68247;SDS011;55064;49.636;12.164;2023-01-15T17:17:38;5.85;;;1.55;;
68247;SDS011;55064;49.636;12.164;2023-01-15T17:20:04;5.63;;;1.20;;
68247;SDS011;55064;49.636;12.164;2023-01-15T17:22:30;4.80;;;1.08;;
68247;SDS011;55064;49.636;12.164;2023-01-15T17:24:59;4.50;;;1.17;;
68247;SDS011;55064;49.636;12.164;2023-01-15T17:27:25;3.33;;;0.83;;
68247;SDS011;55064;49.636;12.164;2023-01-15T17:29:52;4.40;;;0.80;;
68247;SDS011;55064;49.636;12.164;2023-01-15T17:32:28;4.63;;;0.80;;
68247;SDS011;55064;49.636;12.164;2023-01-15T17:34:55;4.17;;;0.83;;
68247;SDS011;55064;49.636;12.164;2023-01-15T17:37:21;4.63;;;0.90;;
68247;SDS011;55064;49.636;12.164;2023-01-15T17:39:48;5.63;;;1.20;;
68247;SDS011;55064;49.636;12.164;2023-01-15T17:42:15;3.37;;;0.73;;
68247;SDS011;55064;49.636;12.164;2023-01-15T17:44:42;4.65;;;0.80;;
68247;SDS011;55064;49.636;12.164;2023-01-15T17:47:08;4.37;;;0.90;;
68247;SDS011;55064;49.636;12.164;2023-01-15T17:49:36;6.10;;;1.20;;
68247;SDS011;55064;49.636;12.164;2023-01-15T17:52:03;5.05;;;1.15;;
68247;SDS011;55064;49.636;12.164;2023-01-15T17:54:31;5.30;;;1.40;;
68247;SDS011;55064;49.636;12.164;2023-01-15T17:57:15;5.97;;;1.70;;
68247;SDS011;55064;49.636;12.164;2023-01-15T18:00:02;4.50;;;0.70;;
68247;SDS011;55064;49.636;12.164;2023-01-15T18:02:46;5.05;;;1.00;;
68247;SDS011;55064;49.636;12.164;2023-01-15T18:05:30;6.60;;;1.75;;
68247;SDS011;55064;49.636;12.164;2023-01-15T18:08:03;7.90;;;3.00;;
68247;SDS011;55064;49.636;12.164;2023-01-15T18:10:32;6.97;;;1.92;;
68247;SDS011;55064;49.636;12.164;2023-01-15T18:12:58;10.10;;;3.37;;
68247;SDS011;55064;49.636;12.164;2023-01-15T18:15:25;7.72;;;2.85;;
68247;SDS011;55064;49.636;12.164;2023-01-15T18:17:51;6.73;;;1.80;;
68247;SDS011;55064;49.636;12.164;2023-01-15T18:20:16;7.97;;;1.73;;
68247;SDS011;55064;49.636;12.164;2023-01-15T18:22:41;6.57;;;1.60;;
68247;SDS011;55064;49.636;12.164;2023-01-15T18:25:10;5.80;;;1.65;;
68247;SDS011;55064;49.636;12.164;2023-01-15T18:27:38;5.37;;;1.20;;
68247;SDS011;55064;49.636;12.164;2023-01-15T18:30:07;6.88;;;1.88;;
68247;SDS011;55064;49.636;12.164;2023-01-15T18:32:40;7.03;;;1.35;;